Majuro, Majuro Marshall Islands International Airport (PKMJ)

NameMajuro Marshall Islands International Airport
CityMajuro
CountryMarshall Islands
ICAOPKMJ
IATAMAJ
Altitude2 m
CoordinatesGoogle Map
Live Air TrafficLiveATC.net
METARPKMJ 230752Z 17008KT 15SM SCT014 BKN045 OVC130 27/24 A2981 RMK LAST
2019-10-23 07:52:00 Wind: South-Southeast (170°) 4.12 m/s - Visibility: 24140.1 m - Temperature: 27 °C - Dew point: 24 °C - Humidity: 83.7% - Pressure: 1009.48 hPa
Statistics

The table below shows the detailed information of all flights to/from Majuro, Majuro Marshall Islands International Airport (PKMJ).